sensor_id;sensor_type;location;lat;lon;timestamp;temperature;humidity
20041;DHT22;10181;48.072;9.884;2023-10-13T00:01:08;17.60;97.40
20041;DHT22;10181;48.072;9.884;2023-10-13T00:03:37;17.60;97.70
20041;DHT22;10181;48.072;9.884;2023-10-13T00:06:02;17.50;97.50
20041;DHT22;10181;48.072;9.884;2023-10-13T00:08:29;17.50;97.60
20041;DHT22;10181;48.072;9.884;2023-10-13T00:10:55;17.40;97.50
20041;DHT22;10181;48.072;9.884;2023-10-13T00:13:29;17.40;97.50
20041;DHT22;10181;48.072;9.884;2023-10-13T00:15:59;17.40;97.50
20041;DHT22;10181;48.072;9.884;2023-10-13T00:18:29;17.40;97.40
20041;DHT22;10181;48.072;9.884;2023-10-13T00:21:08;17.30;97.30
20041;DHT22;10181;48.072;9.884;2023-10-13T00:24:01;17.30;97.30
20041;DHT22;10181;48.072;9.884;2023-10-13T00:26:28;17.30;97.20
20041;DHT22;10181;48.072;9.884;2023-10-13T00:28:55;17.30;97.10
20041;DHT22;10181;48.072;9.884;2023-10-13T00:31:35;17.30;96.90
20041;DHT22;10181;48.072;9.884;2023-10-13T00:34:02;17.30;97.00
20041;DHT22;10181;48.072;9.884;2023-10-13T00:36:41;17.30;97.10
20041;DHT22;10181;48.072;9.884;2023-10-13T00:39:37;17.30;97.10
20041;DHT22;10181;48.072;9.884;2023-10-13T00:42:03;17.20;97.20
20041;DHT22;10181;48.072;9.884;2023-10-13T00:44:33;17.10;97.10
20041;DHT22;10181;48.072;9.884;2023-10-13T00:47:10;17.00;97.10
20041;DHT22;10181;48.072;9.884;2023-10-13T00:49:43;17.00;97.00
20041;DHT22;10181;48.072;9.884;2023-10-13T00:52:13;17.00;96.80
20041;DHT22;10181;48.072;9.884;2023-10-13T00:54:42;16.90;96.80
20041;DHT22;10181;48.072;9.884;2023-10-13T00:57:13;17.00;96.60
20041;DHT22;10181;48.072;9.884;2023-10-13T01:00:02;17.00;96.50
20041;DHT22;10181;48.072;9.884;2023-10-13T01:02:45;17.10;96.30
20041;DHT22;10181;48.072;9.884;2023-10-13T01:05:11;17.10;96.40
20041;DHT22;10181;48.072;9.884;2023-10-13T01:07:45;17.10;96.30
20041;DHT22;10181;48.072;9.884;2023-10-13T01:10:16;17.10;96.30
20041;DHT22;10181;48.072;9.884;2023-10-13T01:12:42;17.00;96.20
20041;DHT22;10181;48.072;9.884;2023-10-13T01:15:11;17.00;96.20
20041;DHT22;10181;48.072;9.884;2023-10-13T01:17:41;16.90;96.20
20041;DHT22;10181;48.072;9.884;2023-10-13T01:20:12;16.90;96.50
20041;DHT22;10181;48.072;9.884;2023-10-13T01:22:46;16.80;96.70
20041;DHT22;10181;48.072;9.884;2023-10-13T01:25:22;16.60;96.60
20041;DHT22;10181;48.072;9.884;2023-10-13T01:27:51;16.50;96.70
20041;DHT22;10181;48.072;9.884;2023-10-13T01:30:17;16.40;96.70
20041;DHT22;10181;48.072;9.884;2023-10-13T01:32:49;16.40;96.60
20041;DHT22;10181;48.072;9.884;2023-10-13T01:35:16;16.40;96.80
20041;DHT22;10181;48.072;9.884;2023-10-13T01:37:45;16.30;96.70
20041;DHT22;10181;48.072;9.884;2023-10-13T01:40:11;16.20;96.70
20041;DHT22;10181;48.072;9.884;2023-10-13T01:42:39;16.20;96.80
20041;DHT22;10181;48.072;9.884;2023-10-13T01:45:05;16.20;96.60
20041;DHT22;10181;48.072;9.884;2023-10-13T01:47:34;16.20;96.70
20041;DHT22;10181;48.072;9.884;2023-10-13T01:49:59;16.10;96.80
20041;DHT22;10181;48.072;9.884;2023-10-13T01:52:46;16.10;96.90
20041;DHT22;10181;48.072;9.884;2023-10-13T01:55:13;16.00;97.00
20041;DHT22;10181;48.072;9.884;2023-10-13T01:57:40;15.90;97.20
20041;DHT22;10181;48.072;9.884;2023-10-13T02:00:09;16.00;96.90
20041;DHT22;10181;48.072;9.884;2023-10-13T02:02:45;16.00;97.00
20041;DHT22;10181;48.072;9.884;2023-10-13T02:05:15;16.00;96.90
20041;DHT22;10181;48.072;9.884;2023-10-13T02:07:42;16.00;96.90
20041;DHT22;10181;48.072;9.884;2023-10-13T02:10:13;15.90;97.00
20041;DHT22;10181;48.072;9.884;2023-10-13T02:12:39;15.90;97.00
20041;DHT22;10181;48.072;9.884;2023-10-13T02:15:13;16.00;96.90
20041;DHT22;10181;48.072;9.884;2023-10-13T02:17:52;16.00;97.00
20041;DHT22;10181;48.072;9.884;2023-10-13T02:20:20;16.00;96.90
20041;DHT22;10181;48.072;9.884;2023-10-13T02:22:49;16.00;96.80
20041;DHT22;10181;48.072;9.884;2023-10-13T02:25:19;16.00;96.80
20041;DHT22;10181;48.072;9.884;2023-10-13T02:28:02;16.00;96.80
20041;DHT22;10181;48.072;9.884;2023-10-13T02:30:40;16.00;96.80
20041;DHT22;10181;48.072;9.884;2023-10-13T02:33:13;15.90;96.80
20041;DHT22;10181;48.072;9.884;2023-10-13T02:35:39;15.90;96.80
20041;DHT22;10181;48.072;9.884;2023-10-13T02:38:12;15.80;96.90
20041;DHT22;10181;48.072;9.884;2023-10-13T02:40:40;15.70;96.80
20041;DHT22;10181;48.072;9.884;2023-10-13T02:43:06;15.60;96.90
20041;DHT22;10181;48.072;9.884;2023-10-13T02:45:33;15.50;97.00
20041;DHT22;10181;48.072;9.884;2023-10-13T02:48:01;15.50;97.10
20041;DHT22;10181;48.072;9.884;2023-10-13T02:50:42;15.40;97.20
20041;DHT22;10181;48.072;9.884;2023-10-13T02:53:09;15.30;97.30
20041;DHT22;10181;48.072;9.884;2023-10-13T02:55:48;15.10;97.50
20041;DHT22;10181;48.072;9.884;2023-10-13T02:58:13;15.00;97.50
20041;DHT22;10181;48.072;9.884;2023-10-13T03:00:40;14.90;97.70
20041;DHT22;10181;48.072;9.884;2023-10-13T03:03:06;14.80;97.80
20041;DHT22;10181;48.072;9.884;2023-10-13T03:05:35;14.70;98.00
20041;DHT22;10181;48.072;9.884;2023-10-13T03:08:05;14.60;98.20
20041;DHT22;10181;48.072;9.884;2023-10-13T03:10:31;14.60;98.20
20041;DHT22;10181;48.072;9.884;2023-10-13T03:12:58;14.70;98.10
20041;DHT22;10181;48.072;9.884;2023-10-13T03:15:24;14.80;98.00
20041;DHT22;10181;48.072;9.884;2023-10-13T03:17:56;14.90;98.00
20041;DHT22;10181;48.072;9.884;2023-10-13T03:20:25;14.90;98.00
20041;DHT22;10181;48.072;9.884;2023-10-13T03:23:00;14.90;98.00
20041;DHT22;10181;48.072;9.884;2023-10-13T03:25:26;14.80;98.00
20041;DHT22;10181;48.072;9.884;2023-10-13T03:27:58;14.70;98.20
20041;DHT22;10181;48.072;9.884;2023-10-13T03:30:24;14.60;98.30
20041;DHT22;10181;48.072;9.884;2023-10-13T03:33:02;14.60;98.30
20041;DHT22;10181;48.072;9.884;2023-10-13T03:35:32;14.50;98.50
20041;DHT22;10181;48.072;9.884;2023-10-13T03:38:06;14.50;98.60
20041;DHT22;10181;48.072;9.884;2023-10-13T03:40:40;14.30;98.60
20041;DHT22;10181;48.072;9.884;2023-10-13T03:43:05;14.20;98.70
20041;DHT22;10181;48.072;9.884;2023-10-13T03:45:39;14.00;98.80
20041;DHT22;10181;48.072;9.884;2023-10-13T03:48:06;13.70;99.10
20041;DHT22;10181;48.072;9.884;2023-10-13T03:50:39;13.60;99.50
20041;DHT22;10181;48.072;9.884;2023-10-13T03:53:26;13.40;99.70
20041;DHT22;10181;48.072;9.884;2023-10-13T03:55:52;13.30;99.90
20041;DHT22;10181;48.072;9.884;2023-10-13T03:58:36;13.20;99.90
20041;DHT22;10181;48.072;9.884;2023-10-13T04:01:04;13.00;99.90
20041;DHT22;10181;48.072;9.884;2023-10-13T04:03:31;12.90;99.90
20041;DHT22;10181;48.072;9.884;2023-10-13T04:06:01;12.80;99.90
20041;DHT22;10181;48.072;9.884;2023-10-13T04:08:32;12.70;99.90
20041;DHT22;10181;48.072;9.884;2023-10-13T04:11:13;12.70;99.90
20041;DHT22;10181;48.072;9.884;2023-10-13T04:13:57;12.60;99.90
20041;DHT22;10181;48.072;9.884;2023-10-13T04:16:48;12.60;99.90
20041;DHT22;10181;48.072;9.884;2023-10-13T04:19:20;12.50;99.90
20041;DHT22;10181;48.072;9.884;2023-10-13T04:21:50;12.40;99.90
20041;DHT22;10181;48.072;9.884;2023-10-13T04:24:26;12.40;99.90
20041;DHT22;10181;48.072;9.884;2023-10-13T04:27:01;12.20;99.90
20041;DHT22;10181;48.072;9.884;2023-10-13T04:30:05;12.10;99.90
20041;DHT22;10181;48.072;9.884;2023-10-13T04:32:33;12.00;99.90
20041;DHT22;10181;48.072;9.884;2023-10-13T04:35:05;11.90;99.90
20041;DHT22;10181;48.072;9.884;2023-10-13T04:37:36;11.80;99.90
20041;DHT22;10181;48.072;9.884;2023-10-13T04:40:26;11.90;99.90
20041;DHT22;10181;48.072;9.884;2023-10-13T04:42:54;12.00;99.90
20041;DHT22;10181;48.072;9.884;2023-10-13T04:45:25;12.00;99.90
20041;DHT22;10181;48.072;9.884;2023-10-13T04:47:57;12.10;99.90
20041;DHT22;10181;48.072;9.884;2023-10-13T04:50:38;12.10;99.90
20041;DHT22;10181;48.072;9.884;2023-10-13T04:53:17;12.00;99.90
20041;DHT22;10181;48.072;9.884;2023-10-13T04:55:59;12.00;99.90
20041;DHT22;10181;48.072;9.884;2023-10-13T04:58:25;12.00;99.90
20041;DHT22;10181;48.072;9.884;2023-10-13T05:01:02;12.00;99.90
20041;DHT22;10181;48.072;9.884;2023-10-13T05:03:46;12.00;99.90
20041;DHT22;10181;48.072;9.884;2023-10-13T05:06:18;12.00;99.90
20041;DHT22;10181;48.072;9.884;2023-10-13T05:09:03;12.00;99.90
20041;DHT22;10181;48.072;9.884;2023-10-13T05:11:46;12.00;99.90
20041;DHT22;10181;48.072;9.884;2023-10-13T05:14:30;12.00;99.90
20041;DHT22;10181;48.072;9.884;2023-10-13T05:17:15;12.00;99.90
20041;DHT22;10181;48.072;9.884;2023-10-13T05:19:59;12.00;99.90
20041;DHT22;10181;48.072;9.884;2023-10-13T05:22:43;12.00;99.90
20041;DHT22;10181;48.072;9.884;2023-10-13T05:25:27;12.10;99.90
20041;DHT22;10181;48.072;9.884;2023-10-13T05:28:11;12.10;99.90
20041;DHT22;10181;48.072;9.884;2023-10-13T05:30:59;12.10;99.90
20041;DHT22;10181;48.072;9.884;2023-10-13T05:33:43;12.10;99.90
20041;DHT22;10181;48.072;9.884;2023-10-13T05:36:27;12.10;99.90
20041;DHT22;10181;48.072;9.884;2023-10-13T05:39:11;12.10;99.90
20041;DHT22;10181;48.072;9.884;2023-10-13T05:41:55;12.10;99.90
20041;DHT22;10181;48.072;9.884;2023-10-13T05:44:39;12.10;99.90
20041;DHT22;10181;48.072;9.884;2023-10-13T05:47:21;12.10;99.90
20041;DHT22;10181;48.072;9.884;2023-10-13T05:50:06;12.10;99.90
20041;DHT22;10181;48.072;9.884;2023-10-13T05:52:49;12.00;99.90
20041;DHT22;10181;48.072;9.884;2023-10-13T05:55:29;11.90;99.90
20041;DHT22;10181;48.072;9.884;2023-10-13T05:58:13;11.80;99.90
20041;DHT22;10181;48.072;9.884;2023-10-13T06:00:58;11.70;99.90
20041;DHT22;10181;48.072;9.884;2023-10-13T06:03:43;11.70;99.90
20041;DHT22;10181;48.072;9.884;2023-10-13T06:06:27;11.60;99.90
20041;DHT22;10181;48.072;9.884;2023-10-13T06:09:11;11.60;99.90
20041;DHT22;10181;48.072;9.884;2023-10-13T06:11:55;11.60;99.90
20041;DHT22;10181;48.072;9.884;2023-10-13T06:14:40;11.70;99.90
20041;DHT22;10181;48.072;9.884;2023-10-13T06:17:24;11.70;99.90
20041;DHT22;10181;48.072;9.884;2023-10-13T06:20:09;11.80;99.90
20041;DHT22;10181;48.072;9.884;2023-10-13T06:22:53;11.90;99.90
20041;DHT22;10181;48.072;9.884;2023-10-13T06:25:38;12.00;99.90
20041;DHT22;10181;48.072;9.884;2023-10-13T06:28:22;12.00;99.90
20041;DHT22;10181;48.072;9.884;2023-10-13T06:31:07;12.00;99.90
20041;DHT22;10181;48.072;9.884;2023-10-13T06:33:33;12.10;99.90
20041;DHT22;10181;48.072;9.884;2023-10-13T06:36:09;12.10;99.90
20041;DHT22;10181;48.072;9.884;2023-10-13T06:38:36;12.10;99.90
20041;DHT22;10181;48.072;9.884;2023-10-13T06:41:02;12.20;99.90
20041;DHT22;10181;48.072;9.884;2023-10-13T06:43:37;12.20;99.90
20041;DHT22;10181;48.072;9.884;2023-10-13T06:46:12;12.30;99.90
20041;DHT22;10181;48.072;9.884;2023-10-13T06:48:49;12.50;99.90
20041;DHT22;10181;48.072;9.884;2023-10-13T06:51:18;12.80;99.90
20041;DHT22;10181;48.072;9.884;2023-10-13T06:53:47;12.90;99.90
20041;DHT22;10181;48.072;9.884;2023-10-13T06:56:17;13.10;99.90
20041;DHT22;10181;48.072;9.884;2023-10-13T06:58:55;13.30;99.90
20041;DHT22;10181;48.072;9.884;2023-10-13T07:01:32;13.30;99.90
20041;DHT22;10181;48.072;9.884;2023-10-13T07:04:06;13.60;99.90
20041;DHT22;10181;48.072;9.884;2023-10-13T07:06:39;13.80;99.90
20041;DHT22;10181;48.072;9.884;2023-10-13T07:09:08;14.00;99.90
20041;DHT22;10181;48.072;9.884;2023-10-13T07:11:41;14.20;99.90
20041;DHT22;10181;48.072;9.884;2023-10-13T07:14:08;14.40;99.90
20041;DHT22;10181;48.072;9.884;2023-10-13T07:16:56;14.60;99.90
20041;DHT22;10181;48.072;9.884;2023-10-13T07:19:25;14.80;99.90
20041;DHT22;10181;48.072;9.884;2023-10-13T07:21:55;15.10;99.90
20041;DHT22;10181;48.072;9.884;2023-10-13T07:24:43;15.30;99.90
20041;DHT22;10181;48.072;9.884;2023-10-13T07:27:09;15.60;99.90
20041;DHT22;10181;48.072;9.884;2023-10-13T07:29:35;15.80;99.90
20041;DHT22;10181;48.072;9.884;2023-10-13T07:32:01;16.10;99.30
20041;DHT22;10181;48.072;9.884;2023-10-13T07:34:38;16.30;99.80
20041;DHT22;10181;48.072;9.884;2023-10-13T07:37:05;16.60;99.40
20041;DHT22;10181;48.072;9.884;2023-10-13T07:39:38;16.70;99.80
20041;DHT22;10181;48.072;9.884;2023-10-13T07:42:05;16.90;99.40
20041;DHT22;10181;48.072;9.884;2023-10-13T07:44:32;17.00;99.70
20041;DHT22;10181;48.072;9.884;2023-10-13T07:46:59;17.10;99.40
20041;DHT22;10181;48.072;9.884;2023-10-13T07:49:34;17.20;98.00
20041;DHT22;10181;48.072;9.884;2023-10-13T07:52:05;17.40;98.80
20041;DHT22;10181;48.072;9.884;2023-10-13T07:54:50;17.50;98.80
20041;DHT22;10181;48.072;9.884;2023-10-13T07:57:25;17.60;98.80
20041;DHT22;10181;48.072;9.884;2023-10-13T07:59:55;17.70;98.00
20041;DHT22;10181;48.072;9.884;2023-10-13T08:02:36;17.90;97.70
20041;DHT22;10181;48.072;9.884;2023-10-13T08:05:15;18.00;97.70
20041;DHT22;10181;48.072;9.884;2023-10-13T08:07:51;18.10;97.60
20041;DHT22;10181;48.072;9.884;2023-10-13T08:10:18;18.20;96.50
20041;DHT22;10181;48.072;9.884;2023-10-13T08:12:43;18.30;97.10
20041;DHT22;10181;48.072;9.884;2023-10-13T08:15:13;18.50;96.70
20041;DHT22;10181;48.072;9.884;2023-10-13T08:17:57;18.60;96.70
20041;DHT22;10181;48.072;9.884;2023-10-13T08:20:24;18.80;95.70
20041;DHT22;10181;48.072;9.884;2023-10-13T08:22:55;18.90;95.20
20041;DHT22;10181;48.072;9.884;2023-10-13T08:25:39;19.00;94.90
20041;DHT22;10181;48.072;9.884;2023-10-13T08:28:23;19.20;94.50
20041;DHT22;10181;48.072;9.884;2023-10-13T08:31:11;19.40;93.60
20041;DHT22;10181;48.072;9.884;2023-10-13T08:33:50;19.50;92.80
20041;DHT22;10181;48.072;9.884;2023-10-13T08:36:16;19.60;92.50
20041;DHT22;10181;48.072;9.884;2023-10-13T08:38:55;19.80;93.00
20041;DHT22;10181;48.072;9.884;2023-10-13T08:41:22;20.00;93.40
20041;DHT22;10181;48.072;9.884;2023-10-13T08:43:50;20.00;92.50
20041;DHT22;10181;48.072;9.884;2023-10-13T08:46:16;20.20;92.50
20041;DHT22;10181;48.072;9.884;2023-10-13T08:48:59;20.20;92.10
20041;DHT22;10181;48.072;9.884;2023-10-13T08:51:54;20.20;91.80
20041;DHT22;10181;48.072;9.884;2023-10-13T08:54:43;20.20;91.00
20041;DHT22;10181;48.072;9.884;2023-10-13T08:57:30;20.30;90.20
20041;DHT22;10181;48.072;9.884;2023-10-13T08:59:58;20.40;90.60
20041;DHT22;10181;48.072;9.884;2023-10-13T09:02:44;20.50;90.40
20041;DHT22;10181;48.072;9.884;2023-10-13T09:05:25;20.60;90.90
20041;DHT22;10181;48.072;9.884;2023-10-13T09:08:26;20.70;90.50
20041;DHT22;10181;48.072;9.884;2023-10-13T09:11:02;20.80;88.90
20041;DHT22;10181;48.072;9.884;2023-10-13T09:13:38;21.00;90.60
20041;DHT22;10181;48.072;9.884;2023-10-13T09:16:11;21.10;90.50
20041;DHT22;10181;48.072;9.884;2023-10-13T09:18:42;21.10;87.60
20041;DHT22;10181;48.072;9.884;2023-10-13T09:21:17;21.10;88.20
20041;DHT22;10181;48.072;9.884;2023-10-13T09:24:01;21.10;87.80
20041;DHT22;10181;48.072;9.884;2023-10-13T09:26:45;21.10;88.20
20041;DHT22;10181;48.072;9.884;2023-10-13T09:29:15;21.10;87.40
20041;DHT22;10181;48.072;9.884;2023-10-13T09:31:46;21.10;87.60
20041;DHT22;10181;48.072;9.884;2023-10-13T09:34:23;21.10;88.20
20041;DHT22;10181;48.072;9.884;2023-10-13T09:36:57;21.10;88.10
20041;DHT22;10181;48.072;9.884;2023-10-13T09:39:27;21.10;87.40
20041;DHT22;10181;48.072;9.884;2023-10-13T09:41:59;21.00;89.00
20041;DHT22;10181;48.072;9.884;2023-10-13T09:44:26;21.10;87.80
20041;DHT22;10181;48.072;9.884;2023-10-13T09:47:00;21.10;89.00
20041;DHT22;10181;48.072;9.884;2023-10-13T09:49:39;21.10;89.50
20041;DHT22;10181;48.072;9.884;2023-10-13T09:52:25;21.10;88.70
20041;DHT22;10181;48.072;9.884;2023-10-13T09:55:26;21.20;89.40
20041;DHT22;10181;48.072;9.884;2023-10-13T09:58:02;21.20;90.00
20041;DHT22;10181;48.072;9.884;2023-10-13T10:00:35;21.30;88.00
20041;DHT22;10181;48.072;9.884;2023-10-13T10:03:08;21.30;87.00
20041;DHT22;10181;48.072;9.884;2023-10-13T10:05:56;21.30;85.60
20041;DHT22;10181;48.072;9.884;2023-10-13T10:08:29;21.40;84.60
20041;DHT22;10181;48.072;9.884;2023-10-13T10:14:10;21.50;85.20
20041;DHT22;10181;48.072;9.884;2023-10-13T10:19:07;21.50;85.20
20041;DHT22;10181;48.072;9.884;2023-10-13T10:21:36;21.50;85.70
20041;DHT22;10181;48.072;9.884;2023-10-13T10:24:13;21.50;85.40
20041;DHT22;10181;48.072;9.884;2023-10-13T10:26:50;21.50;85.30
20041;DHT22;10181;48.072;9.884;2023-10-13T10:29:17;21.50;85.60
20041;DHT22;10181;48.072;9.884;2023-10-13T10:31:43;21.60;85.80
20041;DHT22;10181;48.072;9.884;2023-10-13T10:34:15;21.60;86.60
20041;DHT22;10181;48.072;9.884;2023-10-13T10:36:46;21.70;87.80
20041;DHT22;10181;48.072;9.884;2023-10-13T10:39:12;21.80;88.30
20041;DHT22;10181;48.072;9.884;2023-10-13T10:41:38;21.80;85.30
20041;DHT22;10181;48.072;9.884;2023-10-13T10:44:09;21.90;86.20
20041;DHT22;10181;48.072;9.884;2023-10-13T10:46:40;22.00;86.60
20041;DHT22;10181;48.072;9.884;2023-10-13T10:49:08;22.20;86.50
20041;DHT22;10181;48.072;9.884;2023-10-13T10:51:36;22.20;88.00
20041;DHT22;10181;48.072;9.884;2023-10-13T10:54:18;22.40;87.50
20041;DHT22;10181;48.072;9.884;2023-10-13T10:56:44;22.50;86.00
20041;DHT22;10181;48.072;9.884;2023-10-13T10:59:09;22.60;84.20
20041;DHT22;10181;48.072;9.884;2023-10-13T11:01:45;22.80;85.50
20041;DHT22;10181;48.072;9.884;2023-10-13T11:04:17;23.00;84.70
20041;DHT22;10181;48.072;9.884;2023-10-13T11:06:53;23.20;84.10
20041;DHT22;10181;48.072;9.884;2023-10-13T11:09:32;23.30;84.50
20041;DHT22;10181;48.072;9.884;2023-10-13T11:15:05;23.70;85.90
20041;DHT22;10181;48.072;9.884;2023-10-13T11:17:51;23.80;82.50
20041;DHT22;10181;48.072;9.884;2023-10-13T11:20:20;24.10;77.90
20041;DHT22;10181;48.072;9.884;2023-10-13T11:23:00;24.30;79.70
20041;DHT22;10181;48.072;9.884;2023-10-13T11:25:31;24.50;75.60
20041;DHT22;10181;48.072;9.884;2023-10-13T11:28:18;24.70;76.70
20041;DHT22;10181;48.072;9.884;2023-10-13T11:30:53;24.80;75.90
20041;DHT22;10181;48.072;9.884;2023-10-13T11:33:22;25.10;78.90
20041;DHT22;10181;48.072;9.884;2023-10-13T11:35:55;25.20;74.20
20041;DHT22;10181;48.072;9.884;2023-10-13T11:38:28;25.30;71.90
20041;DHT22;10181;48.072;9.884;2023-10-13T11:40:59;25.40;70.90
20041;DHT22;10181;48.072;9.884;2023-10-13T11:43:43;25.60;75.90
20041;DHT22;10181;48.072;9.884;2023-10-13T11:46:15;25.80;74.50
20041;DHT22;10181;48.072;9.884;2023-10-13T11:48:43;25.80;78.40
20041;DHT22;10181;48.072;9.884;2023-10-13T11:51:10;25.90;75.50
20041;DHT22;10181;48.072;9.884;2023-10-13T11:53:51;26.00;72.00
20041;DHT22;10181;48.072;9.884;2023-10-13T11:56:18;26.00;70.80
20041;DHT22;10181;48.072;9.884;2023-10-13T11:58:48;26.10;70.70
20041;DHT22;10181;48.072;9.884;2023-10-13T12:01:14;26.10;69.60
20041;DHT22;10181;48.072;9.884;2023-10-13T12:03:41;26.20;73.50
20041;DHT22;10181;48.072;9.884;2023-10-13T12:06:26;26.30;67.20
20041;DHT22;10181;48.072;9.884;2023-10-13T12:09:01;26.30;69.00
20041;DHT22;10181;48.072;9.884;2023-10-13T12:11:53;26.40;70.60
20041;DHT22;10181;48.072;9.884;2023-10-13T12:14:26;26.40;72.20
20041;DHT22;10181;48.072;9.884;2023-10-13T12:17:26;26.40;69.70
20041;DHT22;10181;48.072;9.884;2023-10-13T12:20:01;26.30;70.10
20041;DHT22;10181;48.072;9.884;2023-10-13T12:22:30;26.30;70.50
20041;DHT22;10181;48.072;9.884;2023-10-13T12:25:05;26.30;69.90
20041;DHT22;10181;48.072;9.884;2023-10-13T12:27:50;26.30;68.80
20041;DHT22;10181;48.072;9.884;2023-10-13T12:30:21;26.30;68.40
20041;DHT22;10181;48.072;9.884;2023-10-13T12:33:14;26.20;67.90
20041;DHT22;10181;48.072;9.884;2023-10-13T12:35:42;26.10;68.00
20041;DHT22;10181;48.072;9.884;2023-10-13T12:38:29;26.10;68.00
20041;DHT22;10181;48.072;9.884;2023-10-13T12:41:13;26.10;68.50
20041;DHT22;10181;48.072;9.884;2023-10-13T12:43:58;26.10;68.90
20041;DHT22;10181;48.072;9.884;2023-10-13T12:46:42;26.10;70.90
20041;DHT22;10181;48.072;9.884;2023-10-13T12:49:26;26.10;69.20
20041;DHT22;10181;48.072;9.884;2023-10-13T12:52:10;26.00;70.60
20041;DHT22;10181;48.072;9.884;2023-10-13T12:54:48;25.90;71.20
20041;DHT22;10181;48.072;9.884;2023-10-13T12:57:26;25.80;71.80
20041;DHT22;10181;48.072;9.884;2023-10-13T12:59:52;25.70;71.90
20041;DHT22;10181;48.072;9.884;2023-10-13T13:02:23;25.60;73.60
20041;DHT22;10181;48.072;9.884;2023-10-13T13:04:53;25.50;71.80
20041;DHT22;10181;48.072;9.884;2023-10-13T13:07:23;25.50;70.90
20041;DHT22;10181;48.072;9.884;2023-10-13T13:09:53;25.50;71.40
20041;DHT22;10181;48.072;9.884;2023-10-13T13:12:24;25.40;73.20
20041;DHT22;10181;48.072;9.884;2023-10-13T13:14:50;25.30;71.10
20041;DHT22;10181;48.072;9.884;2023-10-13T13:17:23;25.30;71.90
20041;DHT22;10181;48.072;9.884;2023-10-13T13:19:48;25.30;72.20
20041;DHT22;10181;48.072;9.884;2023-10-13T13:22:14;25.10;72.10
20041;DHT22;10181;48.072;9.884;2023-10-13T13:24:42;25.10;71.90
20041;DHT22;10181;48.072;9.884;2023-10-13T13:27:11;25.10;71.50
20041;DHT22;10181;48.072;9.884;2023-10-13T13:29:40;25.20;71.00
20041;DHT22;10181;48.072;9.884;2023-10-13T13:32:06;25.10;71.20
20041;DHT22;10181;48.072;9.884;2023-10-13T13:34:43;25.20;72.30
20041;DHT22;10181;48.072;9.884;2023-10-13T13:37:08;25.20;71.50
20041;DHT22;10181;48.072;9.884;2023-10-13T13:39:38;25.20;71.30
20041;DHT22;10181;48.072;9.884;2023-10-13T13:42:09;25.20;72.50
20041;DHT22;10181;48.072;9.884;2023-10-13T13:44:35;25.20;73.00
20041;DHT22;10181;48.072;9.884;2023-10-13T13:47:03;25.30;74.00
20041;DHT22;10181;48.072;9.884;2023-10-13T13:49:40;25.30;70.60
20041;DHT22;10181;48.072;9.884;2023-10-13T13:52:11;25.40;72.00
20041;DHT22;10181;48.072;9.884;2023-10-13T13:54:43;25.40;72.20
20041;DHT22;10181;48.072;9.884;2023-10-13T13:57:09;25.20;72.80
20041;DHT22;10181;48.072;9.884;2023-10-13T13:59:35;25.10;74.50
20041;DHT22;10181;48.072;9.884;2023-10-13T14:02:02;25.10;75.10
20041;DHT22;10181;48.072;9.884;2023-10-13T14:04:48;25.10;71.80
20041;DHT22;10181;48.072;9.884;2023-10-13T14:07:18;25.10;71.20
20041;DHT22;10181;48.072;9.884;2023-10-13T14:09:49;25.00;73.70
20041;DHT22;10181;48.072;9.884;2023-10-13T14:12:21;25.00;71.30
20041;DHT22;10181;48.072;9.884;2023-10-13T14:15:02;24.90;72.90
20041;DHT22;10181;48.072;9.884;2023-10-13T14:17:28;24.80;73.30
20041;DHT22;10181;48.072;9.884;2023-10-13T14:20:01;24.90;73.70
20041;DHT22;10181;48.072;9.884;2023-10-13T14:22:34;24.80;73.20
20041;DHT22;10181;48.072;9.884;2023-10-13T14:25:03;24.90;72.90
20041;DHT22;10181;48.072;9.884;2023-10-13T14:27:34;24.80;73.20
20041;DHT22;10181;48.072;9.884;2023-10-13T14:30:01;24.90;72.60
20041;DHT22;10181;48.072;9.884;2023-10-13T14:32:28;24.90;71.30
20041;DHT22;10181;48.072;9.884;2023-10-13T14:34:54;24.80;71.40
20041;DHT22;10181;48.072;9.884;2023-10-13T14:37:21;24.80;70.60
20041;DHT22;10181;48.072;9.884;2023-10-13T14:39:56;24.70;71.40
20041;DHT22;10181;48.072;9.884;2023-10-13T14:42:26;24.70;73.00
20041;DHT22;10181;48.072;9.884;2023-10-13T14:44:53;24.70;73.70
20041;DHT22;10181;48.072;9.884;2023-10-13T14:47:27;24.60;74.60
20041;DHT22;10181;48.072;9.884;2023-10-13T14:49:54;24.60;73.60
20041;DHT22;10181;48.072;9.884;2023-10-13T14:52:24;24.60;73.20
20041;DHT22;10181;48.072;9.884;2023-10-13T14:54:52;24.60;73.40
20041;DHT22;10181;48.072;9.884;2023-10-13T14:57:24;24.50;73.30
20041;DHT22;10181;48.072;9.884;2023-10-13T14:59:55;24.50;74.30
20041;DHT22;10181;48.072;9.884;2023-10-13T15:02:24;24.50;73.20
20041;DHT22;10181;48.072;9.884;2023-10-13T15:04:52;24.50;74.30
20041;DHT22;10181;48.072;9.884;2023-10-13T15:07:18;24.40;73.60
20041;DHT22;10181;48.072;9.884;2023-10-13T15:09:45;24.40;73.50
20041;DHT22;10181;48.072;9.884;2023-10-13T15:12:14;24.30;73.30
20041;DHT22;10181;48.072;9.884;2023-10-13T15:14:41;24.30;74.70
20041;DHT22;10181;48.072;9.884;2023-10-13T15:17:09;24.10;73.90
20041;DHT22;10181;48.072;9.884;2023-10-13T15:19:36;24.10;73.70
20041;DHT22;10181;48.072;9.884;2023-10-13T15:22:04;24.00;74.50
20041;DHT22;10181;48.072;9.884;2023-10-13T15:24:33;23.90;75.80
20041;DHT22;10181;48.072;9.884;2023-10-13T15:27:07;23.80;76.20
20041;DHT22;10181;48.072;9.884;2023-10-13T15:29:34;23.70;77.40
20041;DHT22;10181;48.072;9.884;2023-10-13T15:32:04;23.60;77.50
20041;DHT22;10181;48.072;9.884;2023-10-13T15:34:30;23.50;76.90
20041;DHT22;10181;48.072;9.884;2023-10-13T15:36:57;23.40;77.00
20041;DHT22;10181;48.072;9.884;2023-10-13T15:39:23;23.40;77.10
20041;DHT22;10181;48.072;9.884;2023-10-13T15:41:52;23.40;77.30
20041;DHT22;10181;48.072;9.884;2023-10-13T15:44:19;23.30;77.30
20041;DHT22;10181;48.072;9.884;2023-10-13T15:46:46;23.20;77.60
20041;DHT22;10181;48.072;9.884;2023-10-13T15:49:15;23.10;77.70
20041;DHT22;10181;48.072;9.884;2023-10-13T15:51:41;22.90;78.50
20041;DHT22;10181;48.072;9.884;2023-10-13T15:54:07;22.80;78.20
20041;DHT22;10181;48.072;9.884;2023-10-13T15:56:47;22.70;78.90
20041;DHT22;10181;48.072;9.884;2023-10-13T15:59:14;22.60;78.90
20041;DHT22;10181;48.072;9.884;2023-10-13T16:01:40;22.50;78.80
20041;DHT22;10181;48.072;9.884;2023-10-13T16:04:09;22.40;79.30
20041;DHT22;10181;48.072;9.884;2023-10-13T16:06:45;22.20;80.30
20041;DHT22;10181;48.072;9.884;2023-10-13T16:09:18;22.10;80.00
20041;DHT22;10181;48.072;9.884;2023-10-13T16:11:51;21.90;80.20
20041;DHT22;10181;48.072;9.884;2023-10-13T16:14:17;21.80;81.00
20041;DHT22;10181;48.072;9.884;2023-10-13T16:16:45;21.60;81.30
20041;DHT22;10181;48.072;9.884;2023-10-13T16:19:15;21.40;82.00